Terminal Aerodrome Forecast
Issued by NWS Pocatello, ID

Home | Current Version | Previous Version | Text Only | Print | Product List | Glossary On
Versions: 1 2 3 4 5 6 7 8 9 10 11 12 13 14 15 16
000
FTUS45 KPIH 301720
TAFIDA
TAF
KIDA 301720Z 3018/0118 22011KT P6SM VCSH OVC200
      TEMPO 3018/3019 -SHRA OVC100
     FM302100 22011G18KT P6SM VCTS SCT100CB BKN250
     FM010500 03005KT P6SM SCT250
     FM011700 21011G20KT P6SM SKC=

USA.gov is the U.S. government's official web portal to all federal, state and local government web resources and services.